Time,TemperatureF,DewpointF,PressureIn,WindDirection,WindDirectionDegrees,WindSpeedMPH,WindSpeedGustMPH,Humidity,HourlyPrecipIn,Conditions,Clouds,dailyrainin,SolarRadiationWatts/m^2,SoftwareType,DateUTC
2013-02-18 00:08:00,40.7,37.0,30.07,WNW,286,0.0,0.0,85,0.00,,,0.00,0,weatherlink.com 1.10,2013-02-18 08:08:00,
2013-02-18 00:23:00,40.4,37.0,30.07,WNW,286,0.0,0.0,86,0.00,,,0.00,0,weatherlink.com 1.10,2013-02-18 08:23:00,
2013-02-18 00:38:00,40.1,36.0,30.07,WNW,286,0.0,0.0,86,0.00,,,0.00,0,weatherlink.com 1.10,2013-02-18 08:38:00,
2013-02-18 00:53:00,39.7,36.0,30.07,WNW,286,0.0,0.0,86,0.00,,,0.00,0,weatherlink.com 1.10,2013-02-18 08:53:00,
2013-02-18 01:08:00,39.3,36.0,30.07,WNW,286,0.0,0.0,87,0.00,,,0.00,0,weatherlink.com 1.10,2013-02-18 09:08:00,
2013-02-18 01:23:00,38.9,35.0,30.07,WNW,286,0.0,0.0,86,0.00,,,0.00,0,weatherlink.com 1.10,2013-02-18 09:23:00,
2013-02-18 01:38:00,38.5,35.0,30.07,WNW,286,0.0,0.0,88,0.00,,,0.00,0,weatherlink.com 1.10,2013-02-18 09:38:00,
2013-02-18 01:53:00,38.2,35.0,30.07,WNW,286,0.0,0.0,88,0.00,,,0.00,0,weatherlink.com 1.10,2013-02-18 09:53:00,
2013-02-18 02:08:00,38.0,35.0,30.07,WNW,286,0.0,0.0,88,0.00,,,0.00,0,weatherlink.com 1.10,2013-02-18 10:08:00,
2013-02-18 02:23:00,38.0,35.0,30.07,WNW,286,0.0,0.0,89,0.00,,,0.00,0,weatherlink.com 1.10,2013-02-18 10:23:00,
2013-02-18 02:38:00,38.0,35.0,30.07,WNW,286,0.0,0.0,88,0.00,,,0.00,0,weatherlink.com 1.10,2013-02-18 10:38:00,
2013-02-18 02:53:00,37.9,35.0,30.06,WNW,286,0.0,0.0,88,0.00,,,0.00,0,weatherlink.com 1.10,2013-02-18 10:53:00,
2013-02-18 03:08:00,37.8,35.0,30.06,WNW,286,0.0,0.0,88,0.00,,,0.00,0,weatherlink.com 1.10,2013-02-18 11:08:00,
2013-02-18 03:24:00,37.8,35.0,30.06,WNW,286,0.0,0.0,88,0.00,,,0.00,0,weatherlink.com 1.10,2013-02-18 11:24:00,
2013-02-18 03:39:00,37.9,34.0,30.06,WNW,286,0.0,1.0,86,0.00,,,0.00,0,weatherlink.com 1.10,2013-02-18 11:39:00,
2013-02-18 03:54:00,38.2,34.0,30.05,WNW,286,0.0,1.0,86,0.00,,,0.00,0,weatherlink.com 1.10,2013-02-18 11:54:00,
2013-02-18 04:09:00,38.1,34.0,30.05,WNW,286,0.0,0.0,86,0.00,,,0.00,0,weatherlink.com 1.10,2013-02-18 12:09:00,
2013-02-18 04:24:00,37.9,34.0,30.05,WNW,286,0.0,0.0,85,0.00,,,0.00,0,weatherlink.com 1.10,2013-02-18 12:24:00,
2013-02-18 04:39:00,37.6,34.0,30.04,WNW,286,0.0,1.0,86,0.00,,,0.00,0,weatherlink.com 1.10,2013-02-18 12:39:00,
2013-02-18 04:54:00,37.3,34.0,30.05,WNW,286,0.0,1.0,88,0.00,,,0.00,0,weatherlink.com 1.10,2013-02-18 12:54:00,
2013-02-18 05:09:00,37.2,34.0,30.06,WNW,286,0.0,2.0,88,0.00,,,0.00,0,weatherlink.com 1.10,2013-02-18 13:09:00,
2013-02-18 05:24:00,37.0,34.0,30.07,WNW,286,1.0,2.0,88,0.00,,,0.00,0,weatherlink.com 1.10,2013-02-18 13:24:00,
2013-02-18 05:39:00,37.6,34.0,30.07,WNW,286,1.0,2.0,88,0.00,,,0.00,0,weatherlink.com 1.10,2013-02-18 13:39:00,
2013-02-18 05:54:00,38.4,35.0,30.07,WNW,286,0.0,3.0,87,0.00,,,0.00,0,weatherlink.com 1.10,2013-02-18 13:54:00,
2013-02-18 06:09:00,38.8,35.0,30.07,WNW,286,0.0,0.0,87,0.00,,,0.00,0,weatherlink.com 1.10,2013-02-18 14:09:00,
2013-02-18 06:24:00,39.1,36.0,30.06,WNW,286,0.0,0.0,89,0.00,,,0.00,0,weatherlink.com 1.10,2013-02-18 14:24:00,
2013-02-18 06:39:00,39.6,37.0,30.07,WNW,286,0.0,0.0,90,0.00,,,0.00,0,weatherlink.com 1.10,2013-02-18 14:39:00,
2013-02-18 06:54:00,40.2,38.0,30.07,WNW,286,0.0,1.0,90,0.00,,,0.00,0,weatherlink.com 1.10,2013-02-18 14:54:00,
2013-02-18 07:09:00,41.4,39.0,30.07,WNW,286,0.0,2.0,91,0.00,,,0.00,7,weatherlink.com 1.10,2013-02-18 15:09:00,
2013-02-18 07:24:00,42.1,40.0,30.07,WNW,286,0.0,1.0,91,0.00,,,0.00,9,weatherlink.com 1.10,2013-02-18 15:24:00,
2013-02-18 07:39:00,43.1,41.0,30.07,WNW,286,0.0,2.0,92,0.00,,,0.00,25,weatherlink.com 1.10,2013-02-18 15:39:00,
2013-02-18 07:54:00,44.0,42.0,30.08,WNW,286,0.0,1.0,91,0.00,,,0.00,32,weatherlink.com 1.10,2013-02-18 15:54:00,
2013-02-18 08:09:00,44.7,42.0,30.08,WNW,286,2.0,2.0,89,0.00,,,0.00,62,weatherlink.com 1.10,2013-02-18 16:09:00,
2013-02-18 08:24:00,45.2,42.0,30.08,WNW,286,1.0,3.0,89,0.00,,,0.00,114,weatherlink.com 1.10,2013-02-18 16:24:00,
2013-02-18 08:39:00,46.0,43.0,30.08,WNW,284,2.0,4.0,88,0.00,,,0.00,125,weatherlink.com 1.10,2013-02-18 16:39:00,
2013-02-18 08:54:00,46.6,43.0,30.09,West,281,0.0,6.0,86,0.00,,,0.00,123,weatherlink.com 1.10,2013-02-18 16:54:00,
2013-02-18 09:09:00,47.0,43.0,30.09,West,273,2.0,5.0,86,0.00,,,0.00,142,weatherlink.com 1.10,2013-02-18 17:09:00,
2013-02-18 09:24:00,47.6,43.0,30.09,West,271,3.0,7.0,83,0.00,,,0.00,132,weatherlink.com 1.10,2013-02-18 17:24:00,
2013-02-18 09:39:00,48.2,42.0,30.09,West,279,5.0,8.0,80,0.00,,,0.00,130,weatherlink.com 1.10,2013-02-18 17:39:00,
2013-02-18 09:54:00,48.3,42.0,30.09,West,264,1.0,7.0,80,0.00,,,0.00,123,weatherlink.com 1.10,2013-02-18 17:54:00,
2013-02-18 10:09:00,48.5,42.0,30.09,WSW,257,9.0,9.0,79,0.00,,,0.00,141,weatherlink.com 1.10,2013-02-18 18:09:00,
2013-02-18 10:24:00,48.6,42.0,30.09,WSW,245,3.0,10.0,79,0.00,,,0.00,169,weatherlink.com 1.10,2013-02-18 18:24:00,
2013-02-18 10:39:00,48.7,42.0,30.09,WSW,240,3.0,7.0,79,0.00,,,0.00,148,weatherlink.com 1.10,2013-02-18 18:39:00,
2013-02-18 10:55:00,48.9,43.0,30.09,West,271,3.0,8.0,79,0.00,,,0.00,156,weatherlink.com 1.10,2013-02-18 18:55:00,
2013-02-18 11:10:00,49.6,43.0,30.09,WSW,252,2.0,8.0,79,0.00,,,0.00,285,weatherlink.com 1.10,2013-02-18 19:10:00,
2013-02-18 11:25:00,50.5,43.0,30.09,SSW,202,6.0,14.0,75,0.00,,,0.00,199,weatherlink.com 1.10,2013-02-18 19:25:00,
2013-02-18 11:40:00,50.0,42.0,30.08,SW,215,1.0,12.0,74,0.00,,,0.00,192,weatherlink.com 1.10,2013-02-18 19:40:00,
2013-02-18 11:55:00,50.1,42.0,30.08,WSW,239,3.0,9.0,74,0.00,,,0.00,178,weatherlink.com 1.10,2013-02-18 19:55:00,
2013-02-18 12:10:00,49.5,42.0,30.07,WSW,249,3.0,14.0,74,0.00,,,0.00,134,weatherlink.com 1.10,2013-02-18 20:10:00,
2013-02-18 12:25:00,49.4,41.0,30.07,SW,229,3.0,10.0,74,0.00,,,0.00,120,weatherlink.com 1.10,2013-02-18 20:25:00,
2013-02-18 12:40:00,49.4,41.0,30.07,West,265,4.0,11.0,72,0.00,,,0.00,125,weatherlink.com 1.10,2013-02-18 20:40:00,
2013-02-18 12:55:00,49.4,40.0,30.06,SW,233,7.0,13.0,71,0.00,,,0.00,185,weatherlink.com 1.10,2013-02-18 20:55:00,
2013-02-18 13:10:00,49.6,41.0,30.06,WSW,244,6.0,11.0,72,0.00,,,0.00,253,weatherlink.com 1.10,2013-02-18 21:10:00,
2013-02-18 13:25:00,50.1,41.0,30.05,WSW,253,3.0,16.0,70,0.00,,,0.00,288,weatherlink.com 1.10,2013-02-18 21:25:00,
2013-02-18 13:40:00,50.4,40.0,30.04,WSW,254,7.0,15.0,68,0.00,,,0.00,227,weatherlink.com 1.10,2013-02-18 21:40:00,
2013-02-18 13:55:00,50.6,40.0,30.03,SW,229,5.0,12.0,67,0.00,,,0.00,285,weatherlink.com 1.10,2013-02-18 21:55:00,
2013-02-18 14:10:00,51.0,40.0,30.02,SW,214,3.0,14.0,65,0.00,,,0.00,306,weatherlink.com 1.10,2013-02-18 22:10:00,
2013-02-18 14:25:00,51.0,40.0,30.02,South,178,4.0,10.0,67,0.00,,,0.00,258,weatherlink.com 1.10,2013-02-18 22:25:00,
2013-02-18 14:40:00,50.8,40.0,30.03,SW,219,2.0,12.0,66,0.00,,,0.00,206,weatherlink.com 1.10,2013-02-18 22:40:00,
2013-02-18 14:55:00,50.5,39.0,30.03,West,259,2.0,10.0,66,0.00,,,0.00,70,weatherlink.com 1.10,2013-02-18 22:55:00,
2013-02-18 15:10:00,49.6,40.0,30.03,SW,234,7.0,10.0,69,0.00,,,0.00,120,weatherlink.com 1.10,2013-02-18 23:10:00,
2013-02-18 15:25:00,49.6,39.0,30.03,WSW,237,4.0,10.0,68,0.00,,,0.00,51,weatherlink.com 1.10,2013-02-18 23:25:00,
2013-02-18 15:40:00,49.6,39.0,30.02,West,280,7.0,13.0,67,0.00,,,0.00,70,weatherlink.com 1.10,2013-02-18 23:40:00,
2013-02-18 15:56:00,49.7,39.0,30.02,West,261,6.0,10.0,67,0.00,,,0.00,76,weatherlink.com 1.10,2013-02-18 23:56:00,
2013-02-18 16:10:00,49.4,40.0,30.02,West,272,9.0,12.0,69,0.00,,,0.00,62,weatherlink.com 1.10,2013-02-19 00:10:00,
2013-02-18 16:25:00,48.9,40.0,30.02,WSW,249,11.0,12.0,71,0.00,,,0.00,69,weatherlink.com 1.10,2013-02-19 00:25:00,
2013-02-18 16:40:00,48.4,39.0,30.02,West,260,7.0,13.0,70,0.00,,,0.00,42,weatherlink.com 1.10,2013-02-19 00:40:00,
2013-02-18 16:55:00,48.3,38.0,30.02,West,259,9.0,16.0,67,0.00,,,0.00,60,weatherlink.com 1.10,2013-02-19 00:55:00,
2013-02-18 17:10:00,48.6,37.0,30.02,West,276,6.0,12.0,65,0.00,,,0.00,53,weatherlink.com 1.10,2013-02-19 01:10:00,
2013-02-18 17:25:00,48.4,37.0,30.03,SSW,207,7.0,13.0,66,0.00,,,0.00,14,weatherlink.com 1.10,2013-02-19 01:25:00,
2013-02-18 17:40:00,48.1,38.0,30.02,WSW,246,4.0,12.0,67,0.00,,,0.00,5,weatherlink.com 1.10,2013-02-19 01:40:00,
2013-02-18 17:55:00,48.0,38.0,30.02,West,271,3.0,12.0,69,0.00,,,0.00,0,weatherlink.com 1.10,2013-02-19 01:55:00,
2013-02-18 18:10:00,47.9,39.0,30.02,SW,235,4.0,9.0,71,0.00,,,0.00,0,weatherlink.com 1.10,2013-02-19 02:10:00,
2013-02-18 18:25:00,47.8,39.0,30.02,SW,233,4.0,8.0,72,0.00,,,0.00,0,weatherlink.com 1.10,2013-02-19 02:25:00,
2013-02-18 18:40:00,47.5,40.0,30.03,WSW,238,4.0,11.0,74,0.00,,,0.00,0,weatherlink.com 1.10,2013-02-19 02:40:00,
2013-02-18 18:55:00,47.1,39.0,30.03,SW,236,3.0,9.0,74,0.00,,,0.00,0,weatherlink.com 1.10,2013-02-19 02:55:00,
2013-02-18 19:10:00,47.1,40.0,30.03,SW,226,2.0,9.0,75,0.00,,,0.00,0,weatherlink.com 1.10,2013-02-19 03:10:00,
2013-02-18 19:25:00,46.9,39.0,30.03,South,181,3.0,7.0,75,0.00,,,0.00,0,weatherlink.com 1.10,2013-02-19 03:25:00,
2013-02-18 19:40:00,46.7,39.0,30.03,SW,215,1.0,6.0,74,0.00,,,0.00,0,weatherlink.com 1.10,2013-02-19 03:40:00,
2013-02-18 19:55:00,46.8,39.0,30.03,WSW,238,2.0,7.0,75,0.00,,,0.00,0,weatherlink.com 1.10,2013-02-19 03:55:00,
2013-02-18 20:10:00,46.9,39.0,30.03,SW,236,2.0,7.0,75,0.00,,,0.00,0,weatherlink.com 1.10,2013-02-19 04:10:00,
2013-02-18 20:25:00,46.9,39.0,30.03,SSW,212,0.0,6.0,74,0.00,,,0.00,0,weatherlink.com 1.10,2013-02-19 04:25:00,
2013-02-18 20:40:00,47.0,39.0,30.03,West,270,3.0,7.0,74,0.00,,,0.00,0,weatherlink.com 1.10,2013-02-19 04:40:00,
2013-02-18 20:55:00,46.9,39.0,30.03,WSW,238,1.0,8.0,75,0.00,,,0.00,0,weatherlink.com 1.10,2013-02-19 04:55:00,
2013-02-18 21:10:00,46.9,40.0,30.03,SW,235,2.0,7.0,76,0.00,,,0.00,0,weatherlink.com 1.10,2013-02-19 05:10:00,
2013-02-18 21:25:00,46.9,40.0,30.03,SSW,210,1.0,9.0,76,0.00,,,0.00,0,weatherlink.com 1.10,2013-02-19 05:25:00,
2013-02-18 21:40:00,46.7,40.0,30.04,SW,217,1.0,7.0,77,0.00,,,0.00,0,weatherlink.com 1.10,2013-02-19 05:40:00,
2013-02-18 21:55:00,46.5,40.0,30.04,WSW,246,0.0,9.0,78,0.00,,,0.00,0,weatherlink.com 1.10,2013-02-19 05:55:00,
2013-02-18 22:10:00,46.3,40.0,30.04,SSW,196,0.0,8.0,80,0.00,,,0.00,0,weatherlink.com 1.10,2013-02-19 06:10:00,
2013-02-18 22:25:00,46.1,41.0,30.03,SSW,196,8.0,8.0,81,0.00,,,0.00,0,weatherlink.com 1.10,2013-02-19 06:25:00,
2013-02-18 22:40:00,45.9,40.0,30.03,West,277,0.0,8.0,81,0.00,,,0.00,0,weatherlink.com 1.10,2013-02-19 06:40:00,
2013-02-18 22:55:00,46.0,40.0,30.03,West,269,2.0,10.0,80,0.00,,,0.00,0,weatherlink.com 1.10,2013-02-19 06:55:00,
2013-02-18 23:10:00,46.1,39.0,30.02,West,259,5.0,9.0,77,0.00,,,0.00,0,weatherlink.com 1.10,2013-02-19 07:10:00,
2013-02-18 23:25:00,46.3,39.0,30.02,SW,236,3.0,8.0,76,0.00,,,0.00,0,weatherlink.com 1.10,2013-02-19 07:25:00,
2013-02-18 23:40:00,46.0,39.0,30.02,SW,221,1.0,10.0,76,0.00,,,0.00,0,weatherlink.com 1.10,2013-02-19 07:40:00,
2013-02-18 23:55:00,46.0,39.0,30.02,SW,217,2.0,7.0,76,0.00,,,0.00,0,weatherlink.com 1.10,2013-02-19 07:55:00,